createdAt,value
2022-12-18T00:00:10.583Z,61.33
2022-12-18T00:03:05.562Z,61.15
2022-12-18T00:05:33.590Z,60.90
2022-12-18T00:08:01.554Z,60.69
2022-12-18T00:10:30.267Z,60.59
2022-12-18T00:12:58.220Z,60.46
2022-12-18T00:15:26.339Z,60.17
2022-12-18T00:17:54.271Z,60.06
2022-12-18T00:20:26.684Z,60.00
2022-12-18T00:23:00.641Z,59.90
2022-12-18T00:25:28.605Z,59.72
2022-12-18T00:27:56.696Z,59.67
2022-12-18T00:30:24.772Z,59.78
2022-12-18T00:32:54.849Z,59.74
2022-12-18T00:35:23.080Z,59.56
2022-12-18T00:37:51.166Z,59.51
2022-12-18T00:40:19.181Z,59.47
2022-12-18T00:42:59.473Z,59.32
2022-12-18T00:45:28.396Z,59.55
2022-12-18T00:47:57.633Z,59.49
2022-12-18T00:50:26.062Z,59.64
2022-12-18T00:52:54.077Z,59.62
2022-12-18T00:55:21.903Z,59.66
2022-12-18T00:57:51.769Z,59.64
2022-12-18T01:00:20.111Z,59.65
2022-12-18T01:02:48.303Z,59.49
2022-12-18T01:05:16.627Z,59.53
2022-12-18T01:07:44.665Z,59.68
2022-12-18T01:10:13.904Z,59.60
2022-12-18T01:12:42.862Z,59.58
2022-12-18T01:15:14.071Z,59.67
2022-12-18T01:17:42.599Z,59.39
2022-12-18T01:20:12.612Z,59.25
2022-12-18T01:22:40.725Z,59.37
2022-12-18T01:25:09.791Z,59.43
2022-12-18T01:27:37.726Z,59.65
2022-12-18T01:30:06.271Z,59.66
2022-12-18T01:32:34.222Z,59.65
2022-12-18T01:35:04.420Z,59.82
2022-12-18T01:37:32.406Z,59.94
2022-12-18T01:40:00.422Z,59.92
2022-12-18T01:42:28.546Z,59.69
2022-12-18T01:44:59.513Z,59.61
2022-12-18T01:47:41.824Z,59.56
2022-12-18T01:50:22.448Z,59.62
2022-12-18T01:52:55.100Z,59.61
2022-12-18T01:55:24.762Z,59.68
2022-12-18T01:57:56.202Z,59.71
2022-12-18T02:00:24.990Z,59.58
2022-12-18T02:02:53.345Z,59.71
2022-12-18T02:05:42.325Z,59.79
2022-12-18T02:08:36.548Z,59.61
2022-12-18T02:11:12.131Z,59.59
2022-12-18T02:13:46.038Z,59.93
2022-12-18T02:16:28.004Z,59.48
2022-12-18T02:19:01.438Z,59.34
2022-12-18T02:21:29.514Z,59.36
2022-12-18T02:24:15.332Z,59.48
2022-12-18T02:26:58.233Z,59.48
2022-12-18T02:29:57.624Z,59.50
2022-12-18T02:32:29.752Z,59.47
2022-12-18T02:35:00.580Z,59.70
2022-12-18T02:37:32.022Z,59.79
2022-12-18T02:40:05.521Z,59.90
2022-12-18T02:42:33.906Z,59.88
2022-12-18T02:45:02.618Z,59.83
2022-12-18T02:47:35.091Z,59.71
2022-12-18T02:50:35.793Z,59.70
2022-12-18T02:53:20.572Z,59.64
2022-12-18T02:56:10.737Z,59.64
2022-12-18T02:59:01.921Z,59.62
2022-12-18T03:01:53.594Z,59.54
2022-12-18T03:04:40.250Z,59.53
2022-12-18T03:07:16.494Z,59.72
2022-12-18T03:09:47.092Z,59.76
2022-12-18T03:12:28.803Z,59.73
2022-12-18T03:15:20.359Z,59.64
2022-12-18T03:18:08.423Z,59.73
2022-12-18T03:20:40.008Z,59.74
2022-12-18T03:23:12.768Z,59.72
2022-12-18T03:25:45.259Z,59.73
2022-12-18T03:28:16.975Z,59.90
2022-12-18T03:30:48.844Z,59.83
2022-12-18T03:33:26.938Z,59.83
2022-12-18T03:35:56.596Z,59.74
2022-12-18T03:38:25.867Z,59.93
2022-12-18T03:41:32.848Z,59.98
2022-12-18T03:44:36.941Z,60.06
2022-12-18T03:47:05.038Z,59.80
2022-12-18T03:49:58.245Z,59.56
2022-12-18T03:53:01.646Z,59.54
2022-12-18T03:55:35.695Z,59.55
2022-12-18T03:58:08.574Z,59.57
2022-12-18T04:01:01.605Z,59.73
2022-12-18T04:03:33.572Z,59.87
2022-12-18T04:06:03.231Z,59.85
2022-12-18T04:08:31.821Z,59.74
2022-12-18T04:11:06.111Z,59.81
2022-12-18T04:13:36.698Z,59.74
2022-12-18T04:16:07.759Z,59.64
2022-12-18T04:18:37.713Z,59.67
2022-12-18T04:21:05.970Z,59.69
2022-12-18T04:23:34.354Z,59.73
2022-12-18T04:26:03.140Z,59.72
2022-12-18T04:28:50.076Z,59.70
2022-12-18T04:31:18.242Z,59.72
2022-12-18T04:33:46.459Z,59.68
2022-12-18T04:36:15.077Z,59.62
2022-12-18T04:38:43.397Z,59.46
2022-12-18T04:41:13.572Z,59.59
2022-12-18T04:43:42.253Z,59.87
2022-12-18T04:46:10.891Z,59.77
2022-12-18T04:48:40.005Z,59.78
2022-12-18T04:51:08.472Z,59.83
2022-12-18T04:53:36.665Z,59.93
2022-12-18T04:56:06.168Z,59.87
2022-12-18T04:58:35.019Z,60.03
2022-12-18T05:01:03.429Z,59.80
2022-12-18T05:03:31.868Z,59.99
2022-12-18T05:06:00.482Z,59.89
2022-12-18T05:08:28.450Z,59.78
2022-12-18T05:11:05.200Z,59.79
2022-12-18T05:13:33.996Z,59.95
2022-12-18T05:16:02.003Z,59.83
2022-12-18T05:18:30.244Z,59.80
2022-12-18T05:20:58.721Z,59.67
2022-12-18T05:23:27.305Z,59.76
2022-12-18T05:26:01.679Z,59.61
2022-12-18T05:28:32.022Z,59.80
2022-12-18T05:31:01.994Z,59.99
2022-12-18T05:33:31.640Z,59.69
2022-12-18T05:36:04.435Z,59.74
2022-12-18T05:38:35.152Z,60.04
2022-12-18T05:41:04.052Z,60.02
2022-12-18T05:43:32.492Z,60.09
2022-12-18T05:46:08.555Z,60.14
2022-12-18T05:48:36.554Z,60.12
2022-12-18T05:51:16.101Z,59.91
2022-12-18T05:53:44.840Z,59.89
2022-12-18T05:56:16.639Z,59.73
2022-12-18T05:58:45.328Z,59.93
2022-12-18T06:01:18.652Z,59.92
2022-12-18T06:03:47.306Z,59.95
2022-12-18T06:06:16.975Z,59.74
2022-12-18T06:08:46.780Z,59.80
2022-12-18T06:11:19.216Z,59.88
2022-12-18T06:13:47.678Z,59.90
2022-12-18T06:16:15.749Z,59.88
2022-12-18T06:18:43.816Z,59.96
2022-12-18T06:21:11.983Z,59.83
2022-12-18T06:23:40.626Z,59.88
2022-12-18T06:26:10.681Z,59.94
2022-12-18T06:28:38.788Z,59.96
2022-12-18T06:31:08.370Z,59.80
2022-12-18T06:33:37.111Z,59.83
2022-12-18T06:36:14.246Z,59.78
2022-12-18T06:38:44.758Z,59.81
2022-12-18T06:41:15.772Z,59.96
2022-12-18T06:43:46.227Z,60.11
2022-12-18T06:46:14.539Z,60.12
2022-12-18T06:48:42.642Z,60.00
2022-12-18T06:51:11.738Z,60.05
2022-12-18T06:53:40.458Z,60.02
2022-12-18T06:56:10.541Z,60.07
2022-12-18T06:58:39.591Z,60.38
2022-12-18T07:01:11.394Z,60.03
2022-12-18T07:03:42.160Z,59.99
2022-12-18T07:06:16.174Z,60.07
2022-12-18T07:08:44.764Z,60.01
2022-12-18T07:11:13.190Z,59.93
2022-12-18T07:13:41.529Z,59.87
2022-12-18T07:16:22.579Z,59.90
2022-12-18T07:18:52.641Z,59.88
2022-12-18T07:24:04.469Z,59.86
2022-12-18T07:26:32.526Z,59.74
2022-12-18T07:29:00.835Z,59.77
2022-12-18T07:31:34.427Z,59.80
2022-12-18T07:34:03.650Z,59.55
2022-12-18T07:36:31.805Z,59.48
2022-12-18T07:39:00.030Z,59.63
2022-12-18T07:41:28.457Z,59.66
2022-12-18T07:43:56.946Z,59.72
2022-12-18T07:46:25.286Z,59.50
2022-12-18T07:48:53.187Z,59.40
2022-12-18T07:51:21.176Z,59.24
2022-12-18T07:53:50.324Z,59.07
2022-12-18T07:56:30.437Z,58.92
2022-12-18T07:59:00.700Z,58.79
2022-12-18T08:01:29.303Z,58.81
2022-12-18T08:03:58.441Z,58.47
2022-12-18T08:06:26.836Z,58.20
2022-12-18T08:08:56.657Z,58.08
2022-12-18T08:11:27.292Z,58.11
2022-12-18T08:13:56.268Z,57.98
2022-12-18T08:16:24.620Z,57.85
2022-12-18T08:18:53.455Z,57.44
2022-12-18T08:21:27.363Z,57.12
2022-12-18T08:23:58.818Z,56.98
2022-12-18T08:26:28.358Z,56.93
2022-12-18T08:28:58.028Z,57.03
2022-12-18T08:31:28.916Z,56.69
2022-12-18T08:33:56.969Z,56.47
2022-12-18T08:36:25.584Z,56.11
2022-12-18T08:38:55.054Z,55.69
2022-12-18T08:41:23.590Z,55.32
2022-12-18T08:44:10.522Z,55.47
2022-12-18T08:46:40.328Z,54.97
2022-12-18T08:49:10.314Z,54.79
2022-12-18T08:51:38.738Z,54.45
2022-12-18T08:54:07.212Z,54.25
2022-12-18T08:56:35.399Z,54.07
2022-12-18T08:59:03.974Z,53.91
2022-12-18T09:01:32.205Z,53.51
2022-12-18T09:04:01.007Z,53.23
2022-12-18T09:06:28.994Z,53.08
2022-12-18T09:08:58.523Z,53.13
2022-12-18T09:11:27.454Z,53.23
2022-12-18T09:13:55.714Z,52.99
2022-12-18T09:16:28.819Z,52.72
2022-12-18T09:19:00.920Z,52.90
2022-12-18T09:21:32.898Z,53.14
2022-12-18T09:24:03.393Z,53.26
2022-12-18T09:26:31.493Z,53.40
2022-12-18T09:29:12.366Z,53.41
2022-12-18T09:31:40.632Z,53.49
2022-12-18T09:34:08.554Z,53.45
2022-12-18T09:36:36.407Z,53.49
2022-12-18T09:39:08.541Z,53.75
2022-12-18T09:41:41.631Z,53.69
2022-12-18T09:44:18.726Z,53.74
2022-12-18T09:46:59.405Z,53.61
2022-12-18T09:49:31.631Z,53.23
2022-12-18T09:52:06.343Z,53.42
2022-12-18T09:54:44.689Z,53.51
2022-12-18T09:57:16.770Z,53.61
2022-12-18T09:59:51.151Z,53.54
2022-12-18T10:02:24.056Z,53.14
2022-12-18T10:05:08.955Z,53.19
2022-12-18T10:07:45.107Z,52.97
2022-12-18T10:10:28.812Z,52.45
2022-12-18T10:13:08.535Z,52.28
2022-12-18T10:15:58.481Z,51.85
2022-12-18T10:18:26.621Z,51.30
2022-12-18T10:21:01.344Z,51.25
2022-12-18T10:23:48.191Z,51.59
2022-12-18T10:26:16.814Z,51.35
2022-12-18T10:28:46.393Z,51.38
2022-12-18T10:31:32.692Z,51.25
2022-12-18T10:34:00.721Z,50.92
2022-12-18T10:36:28.844Z,50.76
2022-12-18T10:39:16.160Z,50.46
2022-12-18T10:41:44.072Z,50.33
2022-12-18T10:44:21.489Z,50.22
2022-12-18T10:46:54.335Z,50.05
2022-12-18T10:49:31.465Z,50.19
2022-12-18T10:52:29.023Z,50.59
2022-12-18T10:55:02.619Z,51.07
2022-12-18T10:57:36.864Z,50.90
2022-12-18T11:00:29.406Z,50.74
2022-12-18T11:02:58.029Z,50.56
2022-12-18T11:05:35.024Z,50.46
2022-12-18T11:08:03.402Z,50.55
2022-12-18T11:10:33.027Z,50.68
2022-12-18T11:13:21.764Z,50.58
2022-12-18T11:15:50.657Z,50.28
2022-12-18T11:18:26.152Z,50.17
2022-12-18T11:20:59.134Z,50.01
2022-12-18T11:23:27.659Z,49.80
2022-12-18T11:25:59.615Z,49.77
2022-12-18T11:28:35.105Z,49.74
2022-12-18T11:31:18.211Z,49.63
2022-12-18T11:34:19.831Z,49.44
2022-12-18T11:36:44.056Z,49.31
2022-12-18T11:39:21.159Z,49.65
2022-12-18T11:42:12.905Z,49.99
2022-12-18T11:44:53.805Z,50.13
2022-12-18T11:47:33.979Z,50.22
2022-12-18T11:50:04.087Z,50.07
2022-12-18T11:52:40.250Z,50.21
2022-12-18T11:55:16.246Z,50.23
2022-12-18T11:57:56.491Z,50.09
2022-12-18T12:00:25.500Z,49.65
2022-12-18T12:03:08.961Z,48.81
2022-12-18T12:06:02.888Z,47.88
2022-12-18T12:08:52.823Z,47.46
2022-12-18T12:11:31.011Z,46.79
2022-12-18T12:14:08.167Z,46.16
2022-12-18T12:17:08.640Z,47.04
2022-12-18T12:20:04.633Z,47.94
2022-12-18T12:22:49.235Z,48.32
2022-12-18T12:25:42.524Z,47.36
2022-12-18T12:28:13.566Z,45.96
2022-12-18T12:31:06.711Z,45.19
2022-12-18T12:33:47.068Z,44.32
2022-12-18T12:36:33.610Z,43.19
2022-12-18T12:39:06.596Z,42.34
2022-12-18T12:41:56.169Z,41.48
2022-12-18T12:44:33.468Z,41.09
2022-12-18T12:47:04.853Z,40.86
2022-12-18T12:49:39.048Z,40.73
2022-12-18T12:52:13.009Z,40.98
2022-12-18T12:54:42.270Z,41.59
2022-12-18T12:57:25.306Z,42.35
2022-12-18T12:59:53.464Z,42.67
2022-12-18T13:02:21.795Z,42.83
2022-12-18T13:04:53.483Z,43.17
2022-12-18T13:07:34.930Z,43.42
2022-12-18T13:10:20.666Z,43.67
2022-12-18T13:13:02.959Z,43.94
2022-12-18T13:15:39.882Z,44.26
2022-12-18T13:18:11.317Z,44.23
2022-12-18T13:20:55.380Z,44.45
2022-12-18T13:23:26.832Z,44.77
2022-12-18T13:26:07.216Z,44.82
2022-12-18T13:28:47.427Z,45.08
2022-12-18T13:31:16.366Z,45.13
2022-12-18T13:34:24.512Z,45.40
2022-12-18T13:36:36.412Z,45.42
2022-12-18T13:39:12.736Z,45.63
2022-12-18T13:41:42.796Z,45.97
2022-12-18T13:44:13.818Z,46.09
2022-12-18T13:46:47.398Z,46.46
2022-12-18T13:49:15.572Z,46.71
2022-12-18T13:51:55.839Z,46.79
2022-12-18T13:54:37.899Z,46.91
2022-12-18T13:57:07.824Z,47.12
2022-12-18T13:59:40.475Z,47.33
2022-12-18T14:02:23.744Z,47.61
2022-12-18T14:04:52.295Z,47.82
2022-12-18T14:07:23.078Z,47.94
2022-12-18T14:10:06.439Z,48.06
2022-12-18T14:13:00.953Z,48.50
2022-12-18T14:15:42.474Z,48.33
2022-12-18T14:18:36.710Z,48.51
2022-12-18T14:21:07.824Z,48.69
2022-12-18T14:23:40.248Z,48.91
2022-12-18T14:26:28.298Z,49.13
2022-12-18T14:28:58.132Z,49.30
2022-12-18T14:31:29.328Z,49.60
2022-12-18T14:33:57.729Z,49.82
2022-12-18T14:36:28.055Z,49.97
2022-12-18T14:38:58.779Z,50.27
2022-12-18T14:41:28.905Z,50.55
2022-12-18T14:44:07.032Z,50.71
2022-12-18T14:46:34.946Z,50.80
2022-12-18T14:49:04.333Z,50.83
2022-12-18T14:51:35.725Z,50.94
2022-12-18T14:54:09.416Z,51.10
2022-12-18T14:56:44.121Z,51.06
2022-12-18T14:59:24.769Z,50.86
2022-12-18T15:02:02.541Z,51.07
2022-12-18T15:04:44.204Z,51.38
2022-12-18T15:07:18.019Z,51.47
2022-12-18T15:10:10.352Z,51.79
2022-12-18T15:12:44.379Z,51.74
2022-12-18T15:15:34.868Z,51.59
2022-12-18T15:18:14.052Z,51.73
2022-12-18T15:20:46.347Z,51.76
2022-12-18T15:23:34.545Z,51.71
2022-12-18T15:26:07.017Z,51.67
2022-12-18T15:29:03.018Z,51.99
2022-12-18T15:31:33.353Z,52.19
2022-12-18T15:34:22.705Z,51.99
2022-12-18T15:36:51.487Z,52.47
2022-12-18T15:39:19.292Z,52.50
2022-12-18T15:42:05.902Z,52.38
2022-12-18T15:44:33.814Z,52.60
2022-12-18T15:47:01.751Z,52.58
2022-12-18T15:49:29.643Z,53.03
2022-12-18T15:51:59.362Z,53.57
2022-12-18T15:54:46.267Z,53.79
2022-12-18T15:57:26.818Z,53.90
2022-12-18T15:59:57.626Z,54.27
2022-12-18T16:02:26.010Z,54.11
2022-12-18T16:04:55.184Z,53.92
2022-12-18T16:07:25.449Z,53.68
2022-12-18T16:09:55.834Z,53.70
2022-12-18T16:12:26.061Z,53.74
2022-12-18T16:14:53.885Z,53.77
2022-12-18T16:17:22.789Z,53.85
2022-12-18T16:19:50.630Z,53.84
2022-12-18T16:22:22.383Z,53.89
2022-12-18T16:24:50.996Z,54.05
2022-12-18T16:27:19.597Z,54.27
2022-12-18T16:29:47.556Z,54.26
2022-12-18T16:32:16.827Z,54.47
2022-12-18T16:34:45.022Z,54.37
2022-12-18T16:37:14.072Z,54.35
2022-12-18T16:39:42.229Z,54.44
2022-12-18T16:42:17.533Z,54.51
2022-12-18T16:44:46.816Z,54.62
2022-12-18T16:47:15.288Z,54.95
2022-12-18T16:49:46.009Z,54.94
2022-12-18T16:52:14.763Z,54.91
2022-12-18T16:54:42.665Z,55.01
2022-12-18T16:57:13.238Z,55.39
2022-12-18T16:59:41.226Z,55.91
2022-12-18T17:02:14.302Z,56.00
2022-12-18T17:04:42.658Z,56.22
2022-12-18T17:07:10.748Z,56.23
2022-12-18T17:09:39.219Z,56.49
2022-12-18T17:12:07.141Z,57.43
2022-12-18T17:14:35.046Z,57.08
2022-12-18T17:19:52.258Z,57.46
2022-12-18T17:22:20.916Z,57.91
2022-12-18T17:24:48.741Z,58.39
2022-12-18T17:27:16.734Z,58.26
2022-12-18T17:29:48.249Z,58.90
2022-12-18T17:32:17.405Z,58.79
2022-12-18T17:34:45.304Z,58.73
2022-12-18T17:37:13.110Z,58.96
2022-12-18T17:39:41.105Z,58.69
2022-12-18T17:42:11.474Z,58.56
2022-12-18T17:44:44.045Z,58.52
2022-12-18T17:47:13.295Z,58.68
2022-12-18T17:49:41.364Z,58.83
2022-12-18T17:52:09.844Z,59.11
2022-12-18T17:54:40.057Z,59.10
2022-12-18T17:57:08.119Z,58.86
2022-12-18T17:59:36.045Z,58.95
2022-12-18T18:02:03.932Z,59.02
2022-12-18T18:04:32.678Z,59.18
2022-12-18T18:07:00.494Z,59.60
2022-12-18T18:09:28.562Z,59.53
2022-12-18T18:12:16.161Z,59.72
2022-12-18T18:14:45.037Z,59.82
2022-12-18T18:17:12.902Z,59.83
2022-12-18T18:19:42.219Z,59.84
2022-12-18T18:22:11.110Z,60.20
2022-12-18T18:24:39.001Z,60.28
2022-12-18T18:27:06.895Z,60.43
2022-12-18T18:29:34.743Z,60.34
2022-12-18T18:32:02.814Z,60.33
2022-12-18T18:34:31.688Z,60.01
2022-12-18T18:37:01.679Z,60.29
2022-12-18T18:39:29.888Z,60.49
2022-12-18T18:41:58.261Z,60.44
2022-12-18T18:44:26.660Z,60.54
2022-12-18T18:46:58.060Z,60.91
2022-12-18T18:49:27.729Z,61.07
2022-12-18T18:51:57.276Z,61.42
2022-12-18T18:54:26.891Z,61.08
2022-12-18T18:59:43.935Z,61.36
2022-12-18T19:02:12.738Z,61.10
2022-12-18T19:04:46.399Z,61.13
2022-12-18T19:07:29.521Z,61.11
2022-12-18T19:10:07.246Z,60.97
2022-12-18T19:12:54.290Z,60.94
2022-12-18T19:15:22.812Z,60.95
2022-12-18T19:17:50.955Z,60.84
2022-12-18T19:20:19.199Z,60.78
2022-12-18T19:22:55.768Z,61.06
2022-12-18T19:25:30.950Z,61.01
2022-12-18T19:28:21.198Z,60.77
2022-12-18T19:30:59.420Z,60.91
2022-12-18T19:33:43.330Z,60.91
2022-12-18T19:36:13.541Z,60.76
2022-12-18T19:38:43.048Z,60.75
2022-12-18T19:41:14.187Z,60.52
2022-12-18T19:43:43.103Z,60.35
2022-12-18T19:46:12.908Z,60.48
2022-12-18T19:48:45.388Z,60.66
2022-12-18T19:51:16.345Z,60.67
2022-12-18T19:53:45.073Z,60.72
2022-12-18T19:56:14.633Z,60.87
2022-12-18T20:01:38.064Z,60.80
2022-12-18T20:04:06.396Z,61.03
2022-12-18T20:06:36.008Z,60.89
2022-12-18T20:09:05.814Z,60.88
2022-12-18T20:11:36.391Z,60.65
2022-12-18T20:14:11.084Z,60.64
2022-12-18T20:16:39.139Z,60.51
2022-12-18T20:19:07.519Z,60.80
2022-12-18T20:21:36.466Z,60.83
2022-12-18T20:24:07.099Z,61.00
2022-12-18T20:26:34.807Z,61.20
2022-12-18T20:29:02.551Z,61.26
2022-12-18T20:31:30.356Z,61.38
2022-12-18T20:34:01.560Z,61.37
2022-12-18T20:36:31.827Z,61.28
2022-12-18T20:39:03.893Z,61.68
2022-12-18T20:41:37.661Z,61.59
2022-12-18T20:44:14.039Z,61.89
2022-12-18T22:37:34.844Z,63.90
2022-12-18T22:40:03.937Z,65.42
2022-12-18T22:42:32.073Z,66.43
2022-12-18T22:45:00.801Z,66.41
2022-12-18T22:47:31.791Z,66.36
2022-12-18T22:49:59.938Z,66.33
2022-12-18T22:52:28.252Z,65.98
2022-12-18T22:54:56.622Z,66.37
2022-12-18T22:57:24.698Z,66.09
2022-12-18T22:59:52.834Z,65.81
2022-12-18T23:02:21.055Z,65.34
2022-12-18T23:04:49.322Z,64.97
2022-12-18T23:07:17.236Z,64.55
2022-12-18T23:09:45.181Z,64.06
2022-12-18T23:12:18.780Z,63.97
2022-12-18T23:14:47.445Z,63.93
2022-12-18T23:17:15.746Z,63.95
2022-12-18T23:19:48.829Z,64.10
2022-12-18T23:22:17.701Z,64.22
2022-12-18T23:24:46.437Z,63.95
2022-12-18T23:27:14.437Z,63.52
2022-12-18T23:29:42.646Z,63.56
2022-12-18T23:32:13.002Z,63.24
2022-12-18T23:34:41.194Z,63.00
2022-12-18T23:37:09.303Z,62.97
2022-12-18T23:39:37.227Z,63.04
2022-12-18T23:42:05.406Z,63.00
2022-12-18T23:44:34.027Z,63.08
2022-12-18T23:47:04.860Z,63.20
2022-12-18T23:49:32.958Z,63.16
2022-12-18T23:52:01.133Z,62.92
2022-12-18T23:54:33.550Z,62.61
2022-12-18T23:57:02.222Z,62.59
2022-12-18T23:59:30.243Z,62.32
